Time;durP1;ratioP1;P1;durP2;ratioP2;P2;SDS_P1;SDS_P2;PMS_P1;PMS_P2;Temp;Humidity;BMP_temperature;BMP_pressure;BME280_temperature;BME280_humidity;BME280_pressure;Samples;Min_cycle;Max_cycle;Signal;HPM_P1;HPM_P2
2023/07/22 00:01:04;;;;;;;2.17;1.75;;;;;;;;;;5134005;27;20030;-80
2023/07/22 00:03:30;;;;;;;4.45;2.47;;;14.90;99.90;;;;;;5135266;27;20023;-80
2023/07/22 00:06:09;;;;;;;3.08;2.55;;;14.80;99.90;;;;;;5134715;27;20041;-79
2023/07/22 00:08:36;;;;;;;2.50;2.23;;;14.70;99.90;;;;;;5094054;28;20030;-79
2023/07/22 00:11:03;;;;;;;2.83;2.08;;;14.60;99.90;;;;;;5109577;27;20420;-74
2023/07/22 00:13:29;;;;;;;3.20;2.40;;;14.50;99.90;;;;;;5136223;27;20016;-80
2023/07/22 00:15:55;;;;;;;2.50;2.30;;;14.40;99.90;;;;;;5135353;27;20026;-79
2023/07/22 00:18:21;;;;;;;4.03;2.42;;;14.40;99.90;;;;;;5134324;27;20151;-80
2023/07/22 00:20:47;;;;;;;3.03;2.45;;;14.30;99.90;;;;;;5134754;27;20444;-80
2023/07/22 00:23:15;;;;;;;4.93;2.30;;;14.30;99.90;;;;;;5136450;27;20027;-81
2023/07/22 00:25:41;;;;;;;3.45;2.15;;;14.20;99.90;;;;;;5136347;27;20024;-73
2023/07/22 00:28:06;;;;;;;5.10;2.40;;;14.30;99.90;;;;;;5126485;27;20110;-80
2023/07/22 00:30:32;;;;;;;2.58;2.30;;;14.20;99.90;;;;;;5135584;27;20419;-80
2023/07/22 00:32:58;;;;;;;3.92;2.33;;;14.20;99.90;;;;;;5135665;27;20022;-81
2023/07/22 00:35:23;;;;;;;4.50;2.35;;;14.20;99.90;;;;;;5137092;27;20364;-81
2023/07/22 00:37:49;;;;;;;3.33;2.28;;;14.10;99.90;;;;;;5138143;27;20019;-81
2023/07/22 00:40:15;;;;;;;3.67;3.15;;;14.10;99.90;;;;;;5114115;28;20020;-82
2023/07/22 00:42:41;;;;;;;6.85;2.72;;;14.10;99.90;;;;;;5114538;27;20529;-82
2023/07/22 00:45:07;;;;;;;2.95;2.22;;;14.00;99.90;;;;;;5120255;27;20043;-82
2023/07/22 00:47:34;;;;;;;5.10;2.75;;;14.00;99.90;;;;;;5117380;28;20104;-80
2023/07/22 00:50:02;;;;;;;3.53;2.63;;;14.00;99.90;;;;;;5116504;28;20020;-73
2023/07/22 00:52:28;;;;;;;4.03;2.83;;;14.00;99.90;;;;;;5117049;28;20019;-80
2023/07/22 00:54:55;;;;;;;3.75;2.70;;;13.90;99.90;;;;;;5117277;28;20027;-78
2023/07/22 00:57:21;;;;;;;4.35;2.80;;;13.90;99.90;;;;;;5126696;28;20028;-79
2023/07/22 00:59:47;;;;;;;2.75;2.45;;;13.90;99.90;;;;;;5120621;28;20046;-80
2023/07/22 01:02:13;;;;;;;4.40;2.65;;;13.90;99.90;;;;;;5124621;28;20031;-80
2023/07/22 01:04:39;;;;;;;3.88;2.50;;;13.90;99.90;;;;;;5131655;28;20027;-79
2023/07/22 01:07:08;;;;;;;3.08;2.60;;;13.90;99.90;;;;;;5131704;28;20019;-77
2023/07/22 01:09:37;;;;;;;3.20;2.67;;;13.80;99.90;;;;;;5131570;28;20030;-80
2023/07/22 01:12:05;;;;;;;3.92;3.10;;;13.80;99.90;;;;;;5131660;28;20030;-72
2023/07/22 01:14:32;;;;;;;4.07;2.97;;;13.70;99.90;;;;;;5131203;28;20027;-79
2023/07/22 01:16:58;;;;;;;4.50;2.70;;;13.70;99.90;;;;;;5118102;28;20023;-78
2023/07/22 01:19:24;;;;;;;4.93;2.75;;;13.70;99.90;;;;;;5124731;28;20107;-79
2023/07/22 01:21:51;;;;;;;3.65;2.75;;;13.60;99.90;;;;;;5124250;28;20453;-79
2023/07/22 01:24:17;;;;;;;5.80;2.97;;;13.60;99.90;;;;;;5119369;28;20023;-79
2023/07/22 01:26:42;;;;;;;5.43;2.88;;;13.60;99.90;;;;;;5114639;28;20025;-80
2023/07/22 01:29:08;;;;;;;3.78;2.78;;;13.60;99.90;;;;;;5113198;28;20075;-79
2023/07/22 01:31:35;;;;;;;3.00;2.28;;;13.50;99.90;;;;;;5113672;28;20055;-79
2023/07/22 01:34:01;;;;;;;3.92;2.70;;;13.50;99.90;;;;;;5101606;28;20101;-74
2023/07/22 01:36:27;;;;;;;6.40;2.53;;;13.50;99.90;;;;;;5111986;28;20056;-80
2023/07/22 01:38:52;;;;;;;4.90;2.70;;;13.50;99.90;;;;;;5113648;28;20511;-80
2023/07/22 01:41:18;;;;;;;3.78;2.63;;;13.50;99.90;;;;;;5098285;28;20274;-80
2023/07/22 01:43:43;;;;;;;5.75;2.63;;;13.50;99.90;;;;;;5099836;28;20050;-79
2023/07/22 01:46:09;;;;;;;4.53;2.97;;;13.50;99.90;;;;;;5112084;28;20471;-80
2023/07/22 01:48:34;;;;;;;3.88;2.42;;;13.40;99.90;;;;;;5113758;28;20111;-79
2023/07/22 01:51:00;;;;;;;4.65;2.65;;;13.40;99.90;;;;;;5099160;27;20079;-73
2023/07/22 01:53:26;;;;;;;4.22;2.63;;;13.50;99.90;;;;;;5132968;27;20037;-79
2023/07/22 01:55:51;;;;;;;4.65;2.50;;;13.50;99.90;;;;;;5133235;27;20027;-80
2023/07/22 01:58:17;;;;;;;2.45;2.20;;;13.50;99.90;;;;;;5132938;27;20019;-80
2023/07/22 02:00:42;;;;;;;2.95;2.22;;;13.40;99.90;;;;;;5133143;27;20102;-81
2023/07/22 02:03:08;;;;;;;4.10;2.72;;;13.40;99.90;;;;;;5132451;27;20035;-80
2023/07/22 02:05:33;;;;;;;4.57;2.72;;;13.40;99.90;;;;;;5132774;27;20412;-80
2023/07/22 02:07:59;;;;;;;3.22;2.30;;;13.40;99.90;;;;;;5127750;27;20023;-74
2023/07/22 02:10:25;;;;;;;2.35;2.10;;;13.30;99.90;;;;;;5125264;27;20019;-80
2023/07/22 02:12:50;;;;;;;3.40;2.30;;;13.30;99.90;;;;;;5133248;27;20076;-80
2023/07/22 02:15:16;;;;;;;3.58;2.22;;;13.20;99.90;;;;;;5132117;28;20038;-80
2023/07/22 02:17:41;;;;;;;3.17;2.53;;;13.10;99.90;;;;;;5133149;28;20015;-81
2023/07/22 02:20:08;;;;;;;4.10;2.45;;;13.10;99.90;;;;;;5131807;28;20362;-80
2023/07/22 02:22:34;;;;;;;3.53;2.78;;;13.10;99.90;;;;;;5132848;28;20019;-80
2023/07/22 02:25:00;;;;;;;6.25;2.90;;;13.00;99.90;;;;;;5132248;28;20418;-74
2023/07/22 02:27:25;;;;;;;4.97;2.78;;;13.10;99.90;;;;;;5112197;28;20031;-81
2023/07/22 02:29:52;;;;;;;5.20;2.63;;;;;;;;;;5112308;28;20098;-81
2023/07/22 02:32:18;;;;;;;4.80;2.72;;;13.10;99.90;;;;;;5111917;28;20061;-81
2023/07/22 02:34:43;;;;;;;2.70;2.28;;;13.10;99.90;;;;;;5112596;28;20027;-81
2023/07/22 02:37:09;;;;;;;2.60;2.30;;;13.10;99.90;;;;;;5111978;28;20107;-84
2023/07/22 02:39:34;;;;;;;3.65;2.40;;;13.00;99.90;;;;;;5112134;28;20448;-82
2023/07/22 02:42:01;;;;;;;2.60;2.28;;;13.00;99.90;;;;;;5111901;28;20031;-75
2023/07/22 02:44:27;;;;;;;3.40;2.60;;;13.00;99.90;;;;;;5105006;28;20044;-81
2023/07/22 02:46:52;;;;;;;4.05;2.70;;;12.90;99.90;;;;;;5113286;28;20102;-82
2023/07/22 02:49:18;;;;;;;2.92;2.53;;;12.90;99.90;;;;;;5115162;28;20135;-81
2023/07/22 02:51:44;;;;;;;3.92;2.55;;;12.90;99.90;;;;;;5116613;28;20023;-82
2023/07/22 02:54:09;;;;;;;3.95;2.83;;;12.90;99.90;;;;;;5113776;28;20023;-80
2023/07/22 02:56:35;;;;;;;2.50;2.17;;;12.90;99.90;;;;;;5116201;28;20020;-82
2023/07/22 02:59:00;;;;;;;3.45;2.40;;;12.90;99.90;;;;;;5115869;28;20483;-74
2023/07/22 03:01:26;;;;;;;3.63;2.58;;;12.80;99.90;;;;;;5110783;28;20031;-81
2023/07/22 03:03:51;;;;;;;3.65;2.38;;;12.80;99.90;;;;;;5131513;27;20367;-82
2023/07/22 03:06:17;;;;;;;3.15;2.80;;;12.80;99.90;;;;;;5135797;27;20023;-81
2023/07/22 03:08:43;;;;;;;3.90;2.45;;;12.70;99.90;;;;;;5136732;27;20026;-80
2023/07/22 03:11:08;;;;;;;2.72;2.45;;;12.70;99.90;;;;;;5135582;27;20047;-82
2023/07/22 03:13:34;;;;;;;3.15;2.28;;;12.70;99.90;;;;;;5136675;27;20019;-81
2023/07/22 03:16:03;;;;;;;3.40;2.42;;;12.60;99.90;;;;;;5135867;27;20031;-75
2023/07/22 03:18:30;;;;;;;3.10;2.80;;;12.60;99.90;;;;;;5136570;27;20098;-81
2023/07/22 03:20:56;;;;;;;3.25;2.90;;;12.60;99.90;;;;;;5124076;27;20026;-82
2023/07/22 03:23:21;;;;;;;3.53;2.53;;;12.70;99.90;;;;;;5137250;27;20099;-81
2023/07/22 03:25:48;;;;;;;3.10;2.38;;;12.70;99.90;;;;;;5136610;27;20439;-81
2023/07/22 03:28:13;;;;;;;2.60;2.40;;;12.70;99.90;;;;;;5135651;27;20030;-80
2023/07/22 03:30:39;;;;;;;2.72;2.30;;;12.70;99.90;;;;;;5136061;27;20026;-82
2023/07/22 03:33:05;;;;;;;3.95;2.55;;;12.60;99.90;;;;;;5136518;27;20050;-81
2023/07/22 03:35:32;;;;;;;2.65;2.45;;;12.60;99.90;;;;;;5136641;27;20019;-82
2023/07/22 03:37:58;;;;;;;3.78;2.70;;;12.60;99.90;;;;;;5123055;27;20047;-82
2023/07/22 03:40:28;;;;;;;4.85;2.47;;;12.60;99.90;;;;;;5125966;28;20068;-83
2023/07/22 03:42:55;;;;;;;4.00;2.83;;;12.50;99.90;;;;;;5121021;28;20024;-83
2023/07/22 03:45:21;;;;;;;4.32;2.83;;;12.50;99.90;;;;;;5121219;28;20110;-83
2023/07/22 03:47:56;;;;;;;3.42;2.33;;;12.50;99.90;;;;;;5115433;28;20016;-83
2023/07/22 03:50:21;;;;;;;3.58;2.85;;;12.50;99.90;;;;;;5114303;28;20037;-83
2023/07/22 03:52:47;;;;;;;3.97;2.65;;;12.50;99.90;;;;;;5116008;28;20357;-83
2023/07/22 03:55:12;;;;;;;5.47;2.80;;;12.50;99.90;;;;;;5117500;27;20114;-82
2023/07/22 03:57:38;;;;;;;3.80;2.55;;;12.50;99.90;;;;;;5134452;27;20033;-83
2023/07/22 04:00:05;;;;;;;5.72;2.65;;;12.60;99.90;;;;;;5113840;28;20051;-80
2023/07/22 04:02:34;;;;;;;3.78;2.55;;;;;;;;;;5115842;28;20066;-75
2023/07/22 04:05:04;;;;;;;6.27;3.40;;;;;;;;;;5115638;28;20468;-73
2023/07/22 04:07:33;;;;;;;4.15;2.60;;;;;;;;;;5116422;28;20287;-81
2023/07/22 04:10:02;;;;;;;2.50;2.30;;;;;;;;;;5114421;28;20030;-83
2023/07/22 04:12:31;;;;;;;6.13;2.70;;;;;;;;;;5130936;27;20011;-84
2023/07/22 04:15:00;;;;;;;4.35;2.85;;;;;;;;;;5136273;27;20015;-82
2023/07/22 04:17:29;;;;;;;3.47;2.60;;;;;;;;;;5136007;27;20019;-83
2023/07/22 04:19:57;;;;;;;4.13;2.75;;;;;;;;;;5135878;27;20064;-82
2023/07/22 04:22:26;;;;;;;3.90;3.15;;;;;;;;;;5135288;27;20896;-81
2023/07/22 04:24:53;;;;;;;3.40;2.80;;;;;;;;;;5135963;27;20031;-81
2023/07/22 04:27:22;;;;;;;6.40;3.25;;;;;;;;;;5129142;27;20423;-80
2023/07/22 04:29:51;;;;;;;2.90;2.50;;;;;;;;;;5127115;27;20413;-82
2023/07/22 04:32:18;;;;;;;4.93;2.75;;;;;;;;;;5133900;27;20011;-82
2023/07/22 04:34:45;;;;;;;3.67;2.85;;;;;;;;;;5134605;27;20072;-82
2023/07/22 04:37:13;;;;;;;3.13;2.30;;;;;;;;;;5133714;27;20023;-81
2023/07/22 04:39:40;;;;;;;6.15;2.65;;;;;;;;;;5134258;27;20015;-82
2023/07/22 04:42:06;;;;;;;3.17;2.80;;;;;;;;;;5113528;27;20061;-80
2023/07/22 04:44:32;;;;;;;4.30;3.17;;;13.40;99.90;;;;;;5109133;27;20047;-82
2023/07/22 04:46:58;;;;;;;5.43;3.05;;;13.50;99.90;;;;;;5134606;27;20080;-82
2023/07/22 04:49:23;;;;;;;5.55;2.90;;;13.70;99.90;;;;;;5133360;27;20031;-80
2023/07/22 04:51:49;;;;;;;3.63;2.65;;;13.80;99.90;;;;;;5134282;27;20023;-82
2023/07/22 04:54:15;;;;;;;4.95;2.72;;;14.00;99.90;;;;;;5132955;27;20049;-83
2023/07/22 04:56:42;;;;;;;5.07;2.90;;;14.10;99.90;;;;;;5134411;27;20038;-78
2023/07/22 04:59:08;;;;;;;5.50;2.90;;;14.30;99.90;;;;;;5132893;27;20042;-81
2023/07/22 05:01:33;;;;;;;4.80;3.25;;;14.50;99.90;;;;;;5134024;27;20445;-79
2023/07/22 05:03:59;;;;;;;3.30;3.00;;;14.60;99.90;;;;;;5118878;27;20030;-79
2023/07/22 05:06:25;;;;;;;4.38;3.38;;;14.80;99.90;;;;;;5133038;27;20023;-82
2023/07/22 05:08:50;;;;;;;4.47;3.30;;;14.90;99.90;;;;;;5134135;27;20023;-81
2023/07/22 05:11:16;;;;;;;4.10;3.00;;;15.00;99.90;;;;;;5132426;27;20079;-86
2023/07/22 05:13:42;;;;;;;4.15;3.25;;;15.00;99.90;;;;;;5134164;27;20038;-78
2023/07/22 05:16:07;;;;;;;5.00;3.00;;;15.00;99.90;;;;;;5132625;27;20088;-81
2023/07/22 05:18:33;;;;;;;5.03;3.10;;;15.00;99.90;;;;;;5126700;27;20039;-80
2023/07/22 05:20:58;;;;;;;5.43;3.13;;;15.00;99.90;;;;;;5127012;27;20371;-82
2023/07/22 05:23:24;;;;;;;3.78;3.00;;;15.00;99.90;;;;;;5116366;27;20144;-82
2023/07/22 05:25:53;;;;;;;4.47;2.88;;;15.10;99.90;;;;;;5103806;28;20034;-82
2023/07/22 05:28:19;;;;;;;5.05;3.15;;;15.10;99.90;;;;;;5110683;28;20114;-82
2023/07/22 05:30:45;;;;;;;4.03;3.20;;;15.20;99.90;;;;;;5106145;28;20099;-82
2023/07/22 05:33:11;;;;;;;3.58;2.42;;;15.20;99.90;;;;;;5111785;28;20019;-80
2023/07/22 05:35:36;;;;;;;4.15;3.08;;;15.30;99.90;;;;;;5111407;28;20525;-81
2023/07/22 05:38:04;;;;;;;6.68;3.30;;;15.40;99.90;;;;;;5112209;28;20102;-74
2023/07/22 05:40:30;;;;;;;3.15;2.70;;;15.50;99.90;;;;;;5112044;28;20012;-81
2023/07/22 05:42:56;;;;;;;3.42;2.67;;;15.60;99.90;;;;;;5112121;28;20110;-81
2023/07/22 05:45:21;;;;;;;5.00;3.10;;;15.60;99.90;;;;;;5111137;28;20098;-80
2023/07/22 05:47:47;;;;;;;6.47;3.08;;;15.70;99.90;;;;;;5112596;28;20027;-82
2023/07/22 05:50:12;;;;;;;6.80;3.78;;;15.90;99.90;;;;;;5110896;28;20470;-81
2023/07/22 05:52:38;;;;;;;6.18;3.03;;;16.00;99.90;;;;;;5098340;28;20067;-80
2023/07/22 05:55:04;;;;;;;4.38;2.67;;;16.20;99.90;;;;;;5107904;28;20070;-73
2023/07/22 05:57:30;;;;;;;4.07;2.95;;;16.30;99.90;;;;;;5095850;28;20016;-81
2023/07/22 05:59:56;;;;;;;4.28;2.35;;;16.40;99.90;;;;;;5112003;28;20118;-79
2023/07/22 06:02:22;;;;;;;4.22;2.88;;;16.40;99.90;;;;;;5101330;28;20521;-82
2023/07/22 06:04:48;;;;;;;4.75;2.88;;;16.50;99.90;;;;;;5106818;28;20385;-80
2023/07/22 06:07:13;;;;;;;3.13;2.53;;;16.50;99.90;;;;;;5110721;28;20038;-80
2023/07/22 06:09:39;;;;;;;3.55;2.53;;;16.60;99.90;;;;;;5097153;28;20114;-80
2023/07/22 06:12:05;;;;;;;4.35;2.50;;;16.60;99.90;;;;;;5111781;28;20023;-81
2023/07/22 06:14:31;;;;;;;5.88;3.58;;;16.70;99.90;;;;;;5111968;28;20050;-81
2023/07/22 06:16:57;;;;;;;4.88;2.58;;;16.80;99.90;;;;;;5111572;28;20036;-80
2023/07/22 06:19:23;;;;;;;4.30;2.40;;;16.80;99.90;;;;;;5109755;28;20038;-77
2023/07/22 06:21:49;;;;;;;3.97;2.78;;;16.90;99.90;;;;;;5113597;28;20026;-80
2023/07/22 06:24:15;;;;;;;5.03;3.15;;;16.90;99.90;;;;;;5100864;28;20044;-80
2023/07/22 06:26:40;;;;;;;6.35;2.90;;;17.10;99.90;;;;;;5107478;28;20116;-79
2023/07/22 06:29:06;;;;;;;4.63;3.05;;;17.20;99.90;;;;;;5110350;28;20019;-78
2023/07/22 06:31:32;;;;;;;7.10;3.20;;;17.30;99.90;;;;;;5109142;28;20020;-80
2023/07/22 06:33:59;;;;;;;2.63;2.35;;;17.30;99.90;;;;;;5116781;28;20492;-82
2023/07/22 06:36:25;;;;;;;4.03;2.67;;;17.30;99.90;;;;;;5115369;28;20023;-81
2023/07/22 06:38:51;;;;;;;3.75;2.50;;;17.40;99.90;;;;;;5115794;28;20504;-79
2023/07/22 06:41:17;;;;;;;6.70;3.00;;;17.50;99.90;;;;;;5114493;28;20011;-78
2023/07/22 06:43:43;;;;;;;5.47;2.83;;;17.50;99.90;;;;;;5109127;28;20043;-79
2023/07/22 06:46:09;;;;;;;4.93;3.03;;;17.70;99.90;;;;;;5114675;28;20053;-81
2023/07/22 06:48:34;;;;;;;3.90;2.53;;;17.70;99.90;;;;;;5115897;28;20120;-81
2023/07/22 06:51:00;;;;;;;5.55;2.67;;;17.90;99.90;;;;;;5096908;28;20050;-75
2023/07/22 06:53:26;;;;;;;3.85;2.75;;;;;;;;;;5096935;28;20051;-80
2023/07/22 06:55:52;;;;;;;5.57;2.53;;;18.20;99.90;;;;;;5115169;28;20016;-79
2023/07/22 06:58:24;;;;;;;6.78;2.72;;;18.40;99.90;;;;;;5113959;28;20023;-80
2023/07/22 07:00:53;;;;;;;8.00;2.80;;;18.40;99.90;;;;;;5114596;28;20106;-80
2023/07/22 07:03:19;;;;;;;4.53;3.10;;;18.50;99.90;;;;;;5109795;28;20796;-87
2023/07/22 07:05:54;;;;;;;7.00;2.60;;;18.70;99.90;;;;;;5114617;28;20038;-84
2023/07/22 07:08:21;;;;;;;3.35;2.58;;;;;;;;;;5113358;28;20044;-83
2023/07/22 07:10:46;;;;;;;7.93;2.95;;;19.20;99.90;;;;;;5113844;28;20357;-81
2023/07/22 07:13:12;;;;;;;6.53;2.70;;;19.20;99.90;;;;;;5112236;28;20110;-80
2023/07/22 07:15:38;;;;;;;3.10;2.65;;;;;;;;;;5113445;28;20035;-80
2023/07/22 07:18:05;;;;;;;3.47;2.30;;;;;;;;;;5112895;28;20023;-74
2023/07/22 07:20:31;;;;;;;4.72;2.60;;;;;;;;;;5112606;28;20023;-80
2023/07/22 07:22:57;;;;;;;5.18;2.58;;;;;;;;;;5114322;28;20304;-76
2023/07/22 07:25:23;;;;;;;3.15;2.72;;;;;;;;;;5113008;28;20015;-84
2023/07/22 07:27:49;;;;;;;4.80;2.65;;;;;;;;;;5114283;28;20076;-80
2023/07/22 07:30:15;;;;;;;5.35;2.10;;;;;;;;;;5120145;27;20023;-86
2023/07/22 07:32:41;;;;;;;4.00;2.33;;;;;;;;;;5134609;27;20050;-83
2023/07/22 07:35:07;;;;;;;5.50;2.70;;;;;;;;;;5106813;27;20060;-78
2023/07/22 07:37:33;;;;;;;4.35;2.80;;;20.20;99.90;;;;;;5120580;27;20498;-77
2023/07/22 07:39:59;;;;;;;7.32;3.42;;;20.40;99.90;;;;;;5095226;28;20063;-74
2023/07/22 07:42:28;;;;;;;8.27;2.92;;;20.40;99.90;;;;;;5113555;28;20016;-84
2023/07/22 07:44:54;;;;;;;6.60;2.70;;;20.50;99.90;;;;;;5112702;28;20090;-74
2023/07/22 07:47:20;;;;;;;4.80;2.50;;;20.60;99.90;;;;;;5118442;27;20062;-78
2023/07/22 07:49:46;;;;;;;7.22;2.70;;;20.60;99.90;;;;;;5117644;27;20548;-77
2023/07/22 07:52:11;;;;;;;6.10;2.38;;;20.60;99.90;;;;;;5112244;28;20169;-80
2023/07/22 07:54:37;;;;;;;4.18;2.50;;;20.70;99.90;;;;;;5113052;28;20031;-75
2023/07/22 07:57:03;;;;;;;4.60;2.38;;;20.80;99.90;;;;;;5113075;28;20095;-73
2023/07/22 07:59:28;;;;;;;6.90;2.67;;;21.00;99.90;;;;;;5113010;28;20102;-78
2023/07/22 08:01:54;;;;;;;4.32;2.38;;;21.10;99.90;;;;;;5108473;28;20508;-86
2023/07/22 08:04:20;;;;;;;3.67;2.42;;;21.30;99.90;;;;;;5126135;27;20035;-68
2023/07/22 08:06:45;;;;;;;5.40;2.58;;;21.40;99.90;;;;;;5121055;27;20036;-68
2023/07/22 08:09:16;;;;;;;4.05;2.33;;;21.50;99.90;;;;;;5123328;27;20016;-68
2023/07/22 08:11:41;;;;;;;4.00;2.40;;;21.60;99.90;;;;;;5128465;27;20363;-69
2023/07/22 08:14:08;;;;;;;3.83;2.72;;;21.70;99.90;;;;;;5131999;27;20019;-69
2023/07/22 08:16:33;;;;;;;5.82;2.88;;;21.80;99.90;;;;;;5133550;27;20032;-68
2023/07/22 08:18:59;;;;;;;3.25;1.80;;;22.00;99.90;;;;;;5124388;27;20020;-71
2023/07/22 08:21:28;;;;;;;2.78;2.20;;;;;;;;;;5111571;28;20024;-70
2023/07/22 08:23:53;;;;;;;2.17;1.63;;;22.10;99.90;;;;;;5109099;28;20078;-67
2023/07/22 08:26:20;;;;;;;2.78;1.65;;;22.40;99.90;;;;;;5126286;27;20782;-68
2023/07/22 08:28:47;;;;;;;2.22;1.70;;;22.50;99.90;;;;;;5133788;27;20026;-68
2023/07/22 08:31:13;;;;;;;1.67;1.58;;;22.60;99.90;;;;;;5131973;27;20046;-68
2023/07/22 08:33:38;;;;;;;2.20;1.52;;;22.60;96.60;;;;;;5132734;27;20062;-68
2023/07/22 08:36:05;;;;;;;3.20;1.88;;;22.80;99.90;;;;;;5131742;27;20019;-69
2023/07/22 08:38:30;;;;;;;2.25;1.70;;;22.80;99.90;;;;;;5113413;27;20055;-69
2023/07/22 08:40:56;;;;;;;2.72;1.58;;;23.00;99.90;;;;;;5107156;27;20417;-69
2023/07/22 08:43:22;;;;;;;3.08;1.90;;;23.20;99.90;;;;;;5127388;27;20500;-68
2023/07/22 08:45:50;;;;;;;3.05;1.50;;;;;;;;;;5111255;28;20406;-68
2023/07/22 08:48:18;;;;;;;2.80;1.70;;;23.50;99.90;;;;;;5110076;28;20008;-68
2023/07/22 08:50:50;;;;;;;2.47;1.67;;;;;;;;;;5091139;28;20028;-67
2023/07/22 08:53:16;;;;;;;2.42;1.70;;;;;;;;;;5092225;28;20116;-77
2023/07/22 08:55:43;;;;;;;2.05;1.30;;;;;;;;;;5092457;28;20027;-74
2023/07/22 08:58:10;;;;;;;4.88;1.50;;;;;;;;;;5092198;28;20028;-83
2023/07/22 09:00:36;;;;;;;2.17;1.55;;;24.50;99.90;;;;;;5095735;28;20016;-77
2023/07/22 09:03:02;;;;;;;1.80;1.33;;;24.70;99.90;;;;;;5112659;28;20022;-73
2023/07/22 09:05:29;;;;;;;3.45;1.45;;;;;;;;;;5112727;28;20035;-82
2023/07/22 09:07:56;;;;;;;7.03;1.75;;;25.20;86.20;;;;;;5113372;28;20093;-80
2023/07/22 09:10:24;;;;;;;2.28;1.60;;;25.10;86.10;;;;;;5111538;28;20047;-81
2023/07/22 09:12:51;;;;;;;4.75;1.60;;;25.00;83.50;;;;;;5113372;28;20027;-82
2023/07/22 09:15:17;;;;;;;3.13;1.38;;;25.00;82.30;;;;;;5112309;28;20027;-82
2023/07/22 09:17:44;;;;;;;1.40;1.30;;;24.80;82.80;;;;;;5100224;28;20487;-80
2023/07/22 09:20:14;;;;;;;1.60;1.45;;;24.60;81.90;;;;;;5112362;28;20016;-82
2023/07/22 09:22:43;;;;;;;3.92;1.60;;;24.50;81.20;;;;;;5114152;28;20016;-79
2023/07/22 09:25:24;;;;;;;2.55;1.60;;;24.40;81.20;;;;;;5112400;28;20088;-83
2023/07/22 09:27:52;;;;;;;2.03;1.55;;;24.60;81.50;;;;;;5094557;28;20024;-82
2023/07/22 09:30:33;;;;;;;2.28;1.65;;;24.60;81.00;;;;;;5111826;28;20019;-81
2023/07/22 09:33:03;;;;;;;1.42;1.20;;;24.70;81.40;;;;;;5110467;28;20028;-81
2023/07/22 09:35:30;;;;;;;1.98;1.65;;;24.70;80.70;;;;;;5106079;28;20020;-82
2023/07/22 09:37:56;;;;;;;1.33;1.20;;;24.70;80.80;;;;;;5112847;28;20130;-80
2023/07/22 09:40:24;;;;;;;2.00;1.50;;;24.60;81.50;;;;;;5106196;28;20077;-79
2023/07/22 09:42:51;;;;;;;3.25;1.60;;;24.60;81.00;;;;;;5092558;28;20016;-81
2023/07/22 09:45:18;;;;;;;1.65;1.20;;;24.60;82.10;;;;;;5110708;28;20039;-81
2023/07/22 09:47:48;;;;;;;3.22;1.45;;;24.60;81.50;;;;;;5112743;28;20019;-82
2023/07/22 09:50:24;;;;;;;1.88;1.60;;;24.80;81.40;;;;;;5105036;28;20423;-78
2023/07/22 09:53:03;;;;;;;2.35;1.38;;;24.90;80.00;;;;;;5133320;27;20034;-82
2023/07/22 09:55:30;;;;;;;1.60;1.42;;;25.10;80.60;;;;;;5132228;27;20071;-82
2023/07/22 09:58:02;;;;;;;1.70;1.58;;;25.10;80.00;;;;;;5132262;27;20118;-81
2023/07/22 10:00:35;;;;;;;2.03;1.30;;;25.20;79.60;;;;;;5132315;27;20026;-81
2023/07/22 10:03:04;;;;;;;4.28;2.00;;;25.50;79.30;;;;;;5132973;27;20031;-72
2023/07/22 10:05:33;;;;;;;3.20;1.42;;;25.50;78.70;;;;;;5132220;27;20034;-80
2023/07/22 10:07:59;;;;;;;2.03;1.65;;;25.60;78.50;;;;;;5119942;27;20030;-81
2023/07/22 10:10:34;;;;;;;2.15;1.45;;;25.60;78.20;;;;;;5131741;27;20019;-81
2023/07/22 10:13:00;;;;;;;6.60;1.70;;;25.70;77.90;;;;;;5132851;27;20019;-73
2023/07/22 10:15:29;;;;;;;1.60;1.50;;;26.00;76.20;;;;;;5132271;27;20027;-81
2023/07/22 10:17:55;;;;;;;3.95;1.40;;;26.30;74.70;;;;;;5132728;28;20048;-81
2023/07/22 10:20:22;;;;;;;2.15;1.30;;;26.50;74.60;;;;;;5131615;28;20027;-81
2023/07/22 10:22:47;;;;;;;2.28;1.63;;;26.60;75.30;;;;;;5132898;28;20065;-80
2023/07/22 10:25:16;;;;;;;1.77;1.58;;;26.60;74.10;;;;;;5117083;28;20063;-78
2023/07/22 10:27:42;;;;;;;2.15;1.50;;;26.60;73.70;;;;;;5091697;28;20028;-79
2023/07/22 10:30:12;;;;;;;2.10;1.50;;;26.50;73.80;;;;;;5090501;28;20023;-79
2023/07/22 10:32:50;;;;;;;3.58;1.42;;;26.40;74.00;;;;;;5091774;28;20024;-79
2023/07/22 10:35:25;;;;;;;3.08;1.40;;;26.40;73.60;;;;;;5090557;28;20024;-80
2023/07/22 10:37:53;;;;;;;2.25;1.40;;;26.30;73.50;;;;;;5105165;28;20106;-83
2023/07/22 10:40:19;;;;;;;1.70;1.35;;;26.20;73.60;;;;;;5112005;28;20028;-83
2023/07/22 10:43:02;;;;;;;2.15;1.63;;;26.30;73.80;;;;;;5106816;28;20099;-75
2023/07/22 10:45:30;;;;;;;1.90;1.60;;;26.50;73.00;;;;;;5090855;28;20453;-77
2023/07/22 10:48:07;;;;;;;2.40;1.27;;;26.60;72.20;;;;;;5090177;28;20020;-77
2023/07/22 10:50:43;;;;;;;1.25;1.10;;;26.60;71.80;;;;;;5088297;28;20107;-77
2023/07/22 10:53:24;;;;;;;2.45;1.13;;;26.70;71.50;;;;;;5089662;28;20453;-77
2023/07/22 10:56:09;;;;;;;4.85;1.60;;;26.80;72.30;;;;;;5087294;28;20024;-78
2023/07/22 10:58:46;;;;;;;2.25;1.52;;;27.00;71.70;;;;;;5091441;28;20024;-76
2023/07/22 11:01:25;;;;;;;2.13;1.67;;;;;;;;;;5082727;28;20071;-77
2023/07/22 11:04:05;;;;;;;2.80;1.45;;;;;;;;;;5070998;28;20070;-74
2023/07/22 11:06:31;;;;;;;2.28;1.73;;;;;;;;;;5071110;28;20017;-79
2023/07/22 11:08:57;;;;;;;4.10;1.63;;;;;;;;;;5089245;28;20032;-82
2023/07/22 11:11:39;;;;;;;1.77;1.67;;;;;;;;;;5114199;28;20015;-84
2023/07/22 11:14:18;;;;;;;3.42;1.80;;;;;;;;;;5114395;28;20071;-76
2023/07/22 11:16:45;;;;;;;2.20;1.83;;;;;;;;;;5115535;28;20026;-80
2023/07/22 11:19:12;;;;;;;1.70;1.60;;;;;;;;;;5100727;28;20017;-74
2023/07/22 11:21:38;;;;;;;3.83;2.28;;;;;;;;;;5103769;28;20024;-78
2023/07/22 11:24:05;;;;;;;2.80;1.73;;;;;;;;;;5093158;28;20027;-72
2023/07/22 11:26:32;;;;;;;2.35;1.77;;;;;;;;;;5094399;28;20050;-84
2023/07/22 11:28:58;;;;;;;4.05;1.70;;;;;;;;;;5093957;28;20031;-77
2023/07/22 11:31:30;;;;;;;1.80;1.65;;;;;;;;;;5093429;28;20615;-85
2023/07/22 11:33:57;;;;;;;1.80;1.40;;;;;;;;;;5094337;28;20187;-84
2023/07/22 11:36:23;;;;;;;1.65;1.55;;;;;;;;;;5097366;28;20613;-75
2023/07/22 11:38:49;;;;;;;1.45;1.35;;;;;;;;;;5115215;28;20356;-76
2023/07/22 11:41:15;;;;;;;2.40;1.63;;;;;;;;;;5113078;28;20015;-75
2023/07/22 11:43:41;;;;;;;2.65;1.70;;;;;;;;;;5121112;27;20100;-72
2023/07/22 11:46:07;;;;;;;2.53;1.75;;;;;;;;;;5133644;27;20031;-72
2023/07/22 11:48:33;;;;;;;2.38;1.80;;;;;;;;;;5135289;27;20332;-71
2023/07/22 11:50:59;;;;;;;2.20;1.95;;;;;;;;;;5134665;27;20026;-73
2023/07/22 11:53:28;;;;;;;2.10;1.50;;;;;;;;;;5122617;27;20016;-73
2023/07/22 11:55:56;;;;;;;1.67;1.58;;;;;;;;;;5134787;27;20102;-72
2023/07/22 11:58:26;;;;;;;6.90;1.90;;;;;;;;;;5118660;27;20173;-72
2023/07/22 12:01:06;;;;;;;1.75;1.50;;;;;;;;;;5114094;28;20016;-73
2023/07/22 12:03:35;;;;;;;2.85;1.60;;;;;;;;;;5114415;28;20390;-75
2023/07/22 12:06:03;;;;;;;1.80;1.50;;;;;;;;;;5108663;27;20024;-73
2023/07/22 12:08:29;;;;;;;5.68;1.52;;;;;;;;;;5101978;28;20015;-75
2023/07/22 12:10:58;;;;;;;1.75;1.40;;;;;;;;;;5107637;28;20028;-73
2023/07/22 12:13:24;;;;;;;5.15;2.20;;;;;;;;;;5097950;27;20036;-73
2023/07/22 12:16:03;;;;;;;2.03;1.75;;;;;;;;;;5113644;28;20020;-75
2023/07/22 12:18:41;;;;;;;1.98;1.77;;;;;;;;;;5104361;28;20016;-76
2023/07/22 12:21:07;;;;;;;2.55;1.88;;;;;;;;;;5091722;28;20023;-82
2023/07/22 12:23:33;;;;;;;3.00;1.90;;;;;;;;;;5090623;28;20380;-69
2023/07/22 12:25:59;;;;;;;1.90;1.67;;;;;;;;;;5120942;27;20039;-72
2023/07/22 12:28:24;;;;;;;3.63;1.92;;;;;;;;;;5119321;27;20031;-72
2023/07/22 12:30:50;;;;;;;2.45;1.77;;;;;;;;;;5121780;27;20512;-70
2023/07/22 12:33:16;;;;;;;3.05;1.70;;;;;;;;;;5124944;27;20026;-68
2023/07/22 12:35:42;;;;;;;1.38;1.27;;;;;;;;;;5127144;27;20031;-72
2023/07/22 12:38:08;;;;;;;3.67;2.00;;;;;;;;;;5119889;27;20015;-75
2023/07/22 12:40:34;;;;;;;3.05;2.15;;;;;;;;;;5125915;27;20068;-72
2023/07/22 12:43:00;;;;;;;1.90;1.80;;;;;;;;;;5111670;28;20016;-72
2023/07/22 12:45:26;;;;;;;4.50;1.77;;;;;;;;;;5111419;28;20030;-74
2023/07/22 12:47:52;;;;;;;2.15;1.60;;;;;;;;;;5112697;28;20016;-75
2023/07/22 12:50:18;;;;;;;2.70;1.98;;;;;;;;;;5117026;27;20019;-74
2023/07/22 12:52:44;;;;;;;3.05;2.10;;;;;;;;;;5132455;27;20470;-73
2023/07/22 12:55:10;;;;;;;2.30;2.03;;;;;;;;;;5113057;27;20059;-74
2023/07/22 12:57:36;;;;;;;2.58;1.92;;;;;;;;;;5133157;27;20019;-74
2023/07/22 13:00:06;;;;;;;3.38;1.85;;;;;;;;;;5132182;27;20015;-73
2023/07/22 13:02:32;;;;;;;2.80;2.30;;;;;;;;;;5132886;27;20103;-73
2023/07/22 13:04:58;;;;;;;2.25;1.90;;;;;;;;;;5132330;27;20098;-71
2023/07/22 13:07:24;;;;;;;2.50;1.95;;;;;;;;;;5125804;27;20850;-71
2023/07/22 13:09:51;;;;;;;2.20;1.90;;;;;;;;;;5111745;28;20076;-73
2023/07/22 13:12:17;;;;;;;2.13;1.92;;;;;;;;;;5110937;28;20024;-73
2023/07/22 13:14:43;;;;;;;1.98;1.77;;;;;;;;;;5107231;28;20069;-71
2023/07/22 13:17:10;;;;;;;3.13;1.98;;;;;;;;;;5109967;28;20016;-73